createdAt,value
2023-05-07T00:02:13.302Z,23.09
2023-05-07T00:04:39.890Z,22.55
2023-05-07T00:07:06.593Z,22.63
2023-05-07T00:09:33.035Z,22.82
2023-05-07T00:11:59.356Z,22.61
2023-05-07T00:14:26.020Z,22.52
2023-05-07T00:16:52.384Z,22.58
2023-05-07T00:19:18.717Z,22.58
2023-05-07T00:21:45.001Z,22.70
2023-05-07T00:24:11.313Z,22.68
2023-05-07T00:26:37.763Z,22.30
2023-05-07T00:29:04.092Z,21.41
2023-05-07T00:31:30.435Z,21.76
2023-05-07T00:33:56.720Z,21.14
2023-05-07T00:36:23.122Z,22.12
2023-05-07T00:38:49.433Z,21.45
2023-05-07T00:41:16.129Z,21.63
2023-05-07T00:43:42.403Z,21.73
2023-05-07T00:46:08.995Z,21.72
2023-05-07T00:48:35.440Z,21.84
2023-05-07T00:51:01.741Z,22.06
2023-05-07T00:53:28.347Z,21.69
2023-05-07T00:55:54.721Z,21.38
2023-05-07T00:58:21.022Z,21.29
2023-05-07T01:00:47.358Z,21.54
2023-05-07T01:03:14.254Z,21.02
2023-05-07T01:05:41.168Z,21.78
2023-05-07T01:08:07.778Z,21.55
2023-05-07T01:10:34.093Z,21.10
2023-05-07T01:13:01.441Z,21.72
2023-05-07T01:15:27.746Z,21.64
2023-05-07T01:17:54.062Z,21.74
2023-05-07T01:20:20.588Z,21.88
2023-05-07T01:22:46.987Z,21.78
2023-05-07T01:25:14.552Z,22.18
2023-05-07T01:27:41.199Z,21.88
2023-05-07T01:30:07.862Z,21.67
2023-05-07T01:32:40.352Z,22.03
2023-05-07T01:35:06.977Z,21.32
2023-05-07T01:37:33.286Z,21.33
2023-05-07T01:39:59.582Z,21.59
2023-05-07T01:42:25.953Z,21.62
2023-05-07T01:44:52.257Z,21.26
2023-05-07T01:47:18.565Z,21.38
2023-05-07T01:49:44.893Z,20.98
2023-05-07T01:52:11.801Z,21.25
2023-05-07T01:54:38.286Z,21.36
2023-05-07T01:57:04.816Z,21.01
2023-05-07T01:59:31.214Z,20.00
2023-05-07T02:01:57.535Z,20.02
2023-05-07T02:04:23.855Z,20.32
2023-05-07T02:06:50.182Z,20.50
2023-05-07T02:09:16.936Z,21.02
2023-05-07T02:11:45.109Z,20.73
2023-05-07T02:14:11.460Z,21.01
2023-05-07T02:16:37.859Z,20.29
2023-05-07T02:19:04.209Z,21.03
2023-05-07T02:21:31.304Z,21.35
2023-05-07T02:23:57.706Z,21.63
2023-05-07T02:26:23.997Z,21.21
2023-05-07T02:28:50.291Z,21.00
2023-05-07T02:31:16.657Z,21.12
2023-05-07T02:33:43.003Z,20.20
2023-05-07T02:36:12.669Z,20.33
2023-05-07T02:38:39.024Z,20.63
2023-05-07T02:41:05.376Z,20.87
2023-05-07T02:43:31.701Z,20.28
2023-05-07T02:46:02.234Z,21.19
2023-05-07T02:48:28.541Z,21.08
2023-05-07T02:50:54.839Z,21.26
2023-05-07T02:53:21.124Z,21.09
2023-05-07T02:55:47.445Z,21.56
2023-05-07T02:58:13.996Z,21.97
2023-05-07T03:00:41.274Z,21.93
2023-05-07T03:03:07.725Z,21.57
2023-05-07T03:05:34.122Z,20.76
2023-05-07T03:08:00.429Z,21.24
2023-05-07T03:10:26.721Z,21.37
2023-05-07T03:12:53.051Z,21.48
2023-05-07T03:15:19.359Z,21.71
2023-05-07T03:17:45.729Z,21.99
2023-05-07T03:20:12.566Z,22.20
2023-05-07T03:22:39.087Z,21.87
2023-05-07T03:25:05.629Z,21.65
2023-05-07T03:27:31.952Z,21.88
2023-05-07T03:29:58.221Z,21.43
2023-05-07T03:32:24.548Z,21.38
2023-05-07T03:34:50.845Z,21.18
2023-05-07T03:37:17.360Z,21.10
2023-05-07T03:39:43.640Z,21.18
2023-05-07T03:42:09.983Z,21.46
2023-05-07T03:44:37.249Z,21.63
2023-05-07T03:47:03.807Z,21.61
2023-05-07T03:49:30.108Z,21.35
2023-05-07T03:51:56.649Z,21.44
2023-05-07T03:54:22.940Z,21.60
2023-05-07T03:56:49.235Z,21.34
2023-05-07T03:59:15.681Z,21.60
2023-05-07T04:01:41.983Z,21.27
2023-05-07T04:04:08.340Z,21.63
2023-05-07T04:06:34.802Z,21.64
2023-05-07T04:09:01.074Z,21.31
2023-05-07T04:11:27.527Z,21.37
2023-05-07T04:13:53.820Z,21.63
2023-05-07T04:16:20.157Z,21.42
2023-05-07T04:18:46.527Z,21.34
2023-05-07T04:21:19.881Z,21.15
2023-05-07T04:23:47.019Z,20.62
2023-05-07T04:26:13.540Z,20.78
2023-05-07T04:28:40.213Z,20.78
2023-05-07T04:31:06.508Z,21.12
2023-05-07T04:33:33.077Z,20.78
2023-05-07T04:36:03.643Z,20.98
2023-05-07T04:38:30.993Z,21.05
2023-05-07T04:40:58.096Z,21.43
2023-05-07T04:43:24.744Z,20.74
2023-05-07T04:45:51.592Z,21.03
2023-05-07T04:48:20.123Z,21.42
2023-05-07T04:50:50.017Z,20.57
2023-05-07T04:53:16.317Z,21.34
2023-05-07T04:55:42.663Z,21.37
2023-05-07T04:58:09.473Z,21.78
2023-05-07T05:00:35.960Z,21.41
2023-05-07T05:03:02.446Z,21.59
2023-05-07T05:05:28.880Z,21.43
2023-05-07T05:07:55.173Z,20.87
2023-05-07T05:10:24.649Z,21.65
2023-05-07T05:12:51.209Z,21.89
2023-05-07T05:15:17.518Z,20.99
2023-05-07T05:17:43.882Z,21.18
2023-05-07T05:20:13.613Z,21.38
2023-05-07T05:22:39.992Z,21.11
2023-05-07T05:25:06.380Z,21.70
2023-05-07T05:27:32.685Z,21.69
2023-05-07T05:29:59.444Z,21.99
2023-05-07T05:32:26.725Z,22.29
2023-05-07T05:34:53.076Z,22.19
2023-05-07T05:37:19.350Z,22.38
2023-05-07T05:39:45.690Z,21.87
2023-05-07T05:42:11.971Z,22.40
2023-05-07T05:44:38.303Z,21.22
2023-05-07T05:47:04.601Z,21.61
2023-05-07T05:49:30.902Z,21.47
2023-05-07T05:51:57.201Z,21.77
2023-05-07T05:54:23.700Z,21.72
2023-05-07T05:56:50.236Z,21.63
2023-05-07T05:59:16.764Z,21.38
2023-05-07T06:01:43.133Z,21.16
2023-05-07T06:04:09.727Z,21.84
2023-05-07T06:06:36.034Z,21.57
2023-05-07T06:09:02.349Z,22.00
2023-05-07T06:11:28.659Z,22.21
2023-05-07T06:13:54.937Z,22.38
2023-05-07T06:16:21.561Z,21.86
2023-05-07T06:18:47.889Z,22.14
2023-05-07T06:21:14.497Z,22.01
2023-05-07T06:23:41.859Z,22.16
2023-05-07T06:26:08.253Z,22.02
2023-05-07T06:28:37.130Z,21.83
2023-05-07T06:31:13.716Z,22.08
2023-05-07T06:33:40.418Z,22.46
2023-05-07T06:36:06.950Z,22.48
2023-05-07T06:38:33.309Z,21.87
2023-05-07T06:40:59.648Z,22.39
2023-05-07T06:43:25.958Z,22.60
2023-05-07T06:45:52.251Z,22.19
2023-05-07T06:48:18.565Z,22.00
2023-05-07T06:50:44.834Z,22.34
2023-05-07T06:53:11.136Z,22.59
2023-05-07T06:55:39.142Z,22.34
2023-05-07T06:58:05.536Z,22.11
2023-05-07T07:00:31.798Z,22.92
2023-05-07T07:02:58.209Z,21.88
2023-05-07T07:05:24.553Z,22.49
2023-05-07T07:07:53.722Z,23.23
2023-05-07T07:10:20.786Z,22.93
2023-05-07T07:12:47.175Z,22.44
2023-05-07T07:15:14.141Z,22.31
2023-05-07T07:17:40.881Z,22.28
2023-05-07T07:20:07.814Z,22.54
2023-05-07T07:22:34.163Z,22.63
2023-05-07T07:25:00.557Z,22.82
2023-05-07T07:27:26.877Z,22.99
2023-05-07T07:29:53.180Z,23.17
2023-05-07T07:32:19.610Z,22.63
2023-05-07T07:34:45.906Z,23.61
2023-05-07T07:37:12.189Z,22.85
2023-05-07T07:39:42.054Z,22.96
2023-05-07T07:42:08.405Z,22.90
2023-05-07T07:44:34.859Z,22.84
2023-05-07T07:47:01.179Z,23.23
2023-05-07T07:49:27.865Z,23.28
2023-05-07T07:51:54.137Z,23.37
2023-05-07T07:54:20.497Z,22.88
2023-05-07T07:56:46.826Z,22.95
2023-05-07T07:59:14.825Z,23.27
2023-05-07T08:01:41.178Z,23.85
2023-05-07T08:04:07.649Z,23.10
2023-05-07T08:06:34.026Z,22.95
2023-05-07T08:09:00.344Z,23.29
2023-05-07T08:11:26.901Z,23.45
2023-05-07T08:13:53.401Z,22.78
2023-05-07T08:16:20.622Z,23.08
2023-05-07T08:18:47.657Z,23.38
2023-05-07T08:21:13.958Z,23.95
2023-05-07T08:23:40.295Z,22.87
2023-05-07T08:26:06.600Z,22.70
2023-05-07T08:28:32.958Z,22.98
2023-05-07T08:31:01.588Z,23.36
2023-05-07T08:33:27.954Z,23.82
2023-05-07T08:35:54.336Z,24.03
2023-05-07T08:38:21.034Z,24.60
2023-05-07T08:40:47.935Z,24.43
2023-05-07T08:43:15.519Z,23.37
2023-05-07T08:45:42.029Z,24.46
2023-05-07T08:48:09.910Z,23.95
2023-05-07T08:50:36.628Z,23.75
2023-05-07T08:53:06.189Z,23.41
2023-05-07T08:55:32.630Z,23.23
2023-05-07T08:57:58.969Z,24.25
2023-05-07T09:00:25.314Z,24.15
2023-05-07T09:02:51.740Z,24.59
2023-05-07T09:05:18.076Z,24.41
2023-05-07T09:07:44.401Z,24.43
2023-05-07T09:10:11.082Z,24.77
2023-05-07T09:12:37.687Z,25.25
2023-05-07T09:15:04.290Z,25.10
2023-05-07T09:17:30.704Z,24.86
2023-05-07T09:19:57.102Z,25.82
2023-05-07T09:22:23.434Z,25.36
2023-05-07T09:24:50.506Z,26.05
2023-05-07T09:27:16.881Z,25.66
2023-05-07T09:29:44.099Z,25.42
2023-05-07T09:32:10.509Z,24.38
2023-05-07T09:34:37.251Z,24.72
2023-05-07T09:37:03.829Z,25.29
2023-05-07T09:39:42.344Z,24.66
2023-05-07T09:42:08.678Z,25.12
2023-05-07T09:44:35.509Z,25.62
2023-05-07T09:47:01.867Z,26.36
2023-05-07T09:49:31.042Z,26.58
2023-05-07T09:52:00.200Z,26.59
2023-05-07T09:54:26.901Z,26.83
2023-05-07T09:56:53.947Z,26.40
2023-05-07T09:59:20.313Z,25.78
2023-05-07T10:01:46.634Z,26.17
2023-05-07T10:04:13.165Z,25.66
2023-05-07T10:06:39.774Z,26.01
2023-05-07T10:09:09.079Z,25.28
2023-05-07T10:11:36.101Z,25.23
2023-05-07T10:14:05.024Z,25.55
2023-05-07T10:16:37.225Z,25.87
2023-05-07T10:19:04.041Z,25.82
2023-05-07T10:21:30.737Z,26.30
2023-05-07T10:24:01.380Z,25.88
2023-05-07T10:26:28.605Z,26.73
2023-05-07T10:28:55.816Z,26.73
2023-05-07T10:31:47.245Z,27.13
2023-05-07T10:34:14.604Z,27.15
2023-05-07T10:36:40.994Z,26.52
2023-05-07T10:39:07.388Z,27.06
2023-05-07T10:41:33.742Z,26.19
2023-05-07T10:44:02.291Z,26.15
2023-05-07T10:46:28.615Z,26.68
2023-05-07T10:49:01.451Z,26.57
2023-05-07T10:51:28.215Z,26.97
2023-05-07T10:54:13.311Z,27.00
2023-05-07T10:56:40.207Z,26.89
2023-05-07T10:59:21.739Z,26.85
2023-05-07T11:01:52.735Z,27.58
2023-05-07T11:04:25.348Z,27.33
2023-05-07T11:07:07.202Z,26.97
2023-05-07T11:09:55.789Z,27.71
2023-05-07T11:12:37.503Z,27.80
2023-05-07T11:15:07.766Z,28.07
2023-05-07T11:17:37.285Z,27.90
2023-05-07T11:20:05.626Z,28.19
2023-05-07T11:22:32.180Z,28.00
2023-05-07T11:25:00.109Z,28.72
2023-05-07T11:27:26.745Z,28.26
2023-05-07T11:29:53.142Z,28.50
2023-05-07T11:32:30.710Z,28.53
2023-05-07T11:34:59.055Z,29.10
2023-05-07T11:37:25.624Z,28.62
2023-05-07T11:39:59.275Z,28.83
2023-05-07T11:42:32.332Z,29.44
2023-05-07T11:44:58.809Z,29.66
2023-05-07T11:47:25.312Z,29.35
2023-05-07T11:49:52.761Z,28.88
2023-05-07T11:52:19.497Z,29.12
2023-05-07T11:54:52.690Z,29.12
2023-05-07T11:57:19.102Z,29.25
2023-05-07T11:59:45.554Z,29.21
2023-05-07T12:02:12.171Z,28.55
2023-05-07T12:04:39.225Z,29.28
2023-05-07T12:07:05.738Z,28.58
2023-05-07T12:09:33.476Z,27.66
2023-05-07T12:12:03.989Z,27.53
2023-05-07T12:14:30.650Z,27.72
2023-05-07T12:16:56.985Z,28.59
2023-05-07T12:19:23.353Z,28.11
2023-05-07T12:21:49.657Z,29.00
2023-05-07T12:24:16.240Z,29.64
2023-05-07T12:26:42.572Z,29.15
2023-05-07T12:29:09.139Z,28.25
2023-05-07T12:31:35.538Z,28.72
2023-05-07T12:34:01.874Z,28.45
2023-05-07T12:36:28.241Z,27.82
2023-05-07T12:38:54.568Z,28.21
2023-05-07T12:41:26.634Z,27.82
2023-05-07T12:43:53.002Z,28.70
2023-05-07T12:46:19.602Z,28.70
2023-05-07T12:48:48.625Z,28.42
2023-05-07T12:51:16.079Z,28.49
2023-05-07T12:53:45.594Z,28.64
2023-05-07T12:56:11.966Z,28.20
2023-05-07T12:58:38.381Z,29.19
2023-05-07T13:01:08.770Z,28.70
2023-05-07T13:03:36.189Z,28.75
2023-05-07T13:06:06.608Z,29.35
2023-05-07T13:08:34.237Z,29.43
2023-05-07T13:11:04.466Z,29.53
2023-05-07T13:13:34.560Z,29.71
2023-05-07T13:16:01.451Z,30.04
2023-05-07T13:18:28.158Z,29.95
2023-05-07T13:20:54.893Z,29.29
2023-05-07T13:23:21.201Z,29.54
2023-05-07T13:25:47.563Z,29.69
2023-05-07T13:28:13.899Z,29.82
2023-05-07T13:30:41.677Z,30.54
2023-05-07T13:33:08.056Z,30.42
2023-05-07T13:35:34.583Z,29.95
2023-05-07T13:38:00.975Z,29.08
2023-05-07T13:40:27.310Z,29.27
2023-05-07T13:42:54.125Z,29.76
2023-05-07T13:45:20.672Z,29.49
2023-05-07T13:47:47.245Z,29.73
2023-05-07T13:50:14.607Z,29.19
2023-05-07T13:52:42.016Z,29.60
2023-05-07T13:55:08.384Z,30.08
2023-05-07T13:57:34.807Z,28.96
2023-05-07T14:00:01.132Z,29.86
2023-05-07T14:02:27.769Z,29.51
2023-05-07T14:04:54.225Z,28.49
2023-05-07T14:07:20.644Z,28.61
2023-05-07T14:09:46.945Z,28.92
2023-05-07T14:12:13.292Z,29.29
2023-05-07T14:14:39.627Z,28.52
2023-05-07T14:17:06.138Z,29.50
2023-05-07T14:19:32.682Z,29.59
2023-05-07T14:22:00.592Z,29.30
2023-05-07T14:24:37.644Z,29.58
2023-05-07T14:27:05.424Z,29.06
2023-05-07T14:29:31.805Z,29.48
2023-05-07T14:31:58.102Z,29.89
2023-05-07T14:34:24.478Z,29.93
2023-05-07T14:36:50.797Z,29.23
2023-05-07T14:39:17.102Z,29.72
2023-05-07T14:41:43.436Z,29.29
2023-05-07T14:44:09.902Z,29.13
2023-05-07T14:46:36.286Z,28.69
2023-05-07T14:49:03.218Z,27.83
2023-05-07T14:51:30.143Z,27.83
2023-05-07T14:53:56.770Z,28.36
2023-05-07T14:56:23.076Z,27.99
2023-05-07T14:58:49.968Z,28.46
2023-05-07T15:01:16.544Z,28.24
2023-05-07T15:03:43.015Z,29.24
2023-05-07T15:06:09.407Z,29.53
2023-05-07T15:08:35.779Z,29.35
2023-05-07T15:11:02.229Z,29.28
2023-05-07T15:13:28.640Z,28.78
2023-05-07T15:15:55.045Z,28.42
2023-05-07T15:18:22.948Z,28.63
2023-05-07T15:20:49.764Z,28.68
2023-05-07T15:23:16.135Z,29.51
2023-05-07T15:25:42.513Z,30.15
2023-05-07T15:28:08.825Z,29.73
2023-05-07T15:30:35.191Z,29.55
2023-05-07T15:33:02.469Z,29.44
2023-05-07T15:35:28.865Z,29.66
2023-05-07T15:37:55.190Z,29.45
2023-05-07T15:40:21.594Z,29.91
2023-05-07T15:42:47.943Z,29.48
2023-05-07T15:45:14.417Z,29.88
2023-05-07T15:47:41.022Z,30.42
2023-05-07T15:50:07.747Z,30.60
2023-05-07T15:52:34.139Z,29.81
2023-05-07T15:55:00.543Z,29.20
2023-05-07T15:57:26.917Z,30.39
2023-05-07T15:59:53.300Z,29.93
2023-05-07T16:02:20.009Z,30.15
2023-05-07T16:04:46.511Z,30.96
2023-05-07T16:07:13.235Z,31.08
2023-05-07T16:09:39.542Z,31.03
2023-05-07T16:12:06.052Z,30.70
2023-05-07T16:14:32.405Z,29.37
2023-05-07T16:16:58.765Z,29.60
2023-05-07T16:19:25.261Z,29.32
2023-05-07T16:21:51.745Z,29.08
2023-05-07T16:24:18.108Z,29.31
2023-05-07T16:26:44.496Z,29.80
2023-05-07T16:29:11.076Z,29.18
2023-05-07T16:31:37.428Z,28.73
2023-05-07T16:34:04.498Z,28.54
2023-05-07T16:36:31.145Z,28.53
2023-05-07T16:38:57.433Z,27.87
2023-05-07T16:41:23.720Z,28.51
2023-05-07T16:43:50.031Z,28.22
2023-05-07T16:46:16.337Z,28.71
2023-05-07T16:48:42.692Z,28.92
2023-05-07T16:51:09.417Z,29.12
2023-05-07T16:53:35.962Z,28.95
2023-05-07T16:56:05.885Z,28.47
2023-05-07T16:58:33.459Z,29.34
2023-05-07T17:01:00.663Z,28.77
2023-05-07T17:03:29.278Z,27.46
2023-05-07T17:05:56.186Z,28.16
2023-05-07T17:08:22.490Z,27.78
2023-05-07T17:10:48.893Z,27.37
2023-05-07T17:13:15.423Z,26.95
2023-05-07T17:15:43.586Z,27.49
2023-05-07T17:18:10.188Z,27.99
2023-05-07T17:20:36.537Z,27.65
2023-05-07T17:23:02.863Z,27.99
2023-05-07T17:25:29.169Z,28.75
2023-05-07T17:27:55.627Z,28.96
2023-05-07T17:30:22.024Z,29.16
2023-05-07T17:32:48.420Z,28.74
2023-05-07T17:35:14.782Z,27.31
2023-05-07T17:37:41.776Z,27.34
2023-05-07T17:40:08.559Z,27.98
2023-05-07T17:42:34.865Z,28.07
2023-05-07T17:45:01.175Z,27.91
2023-05-07T17:47:27.671Z,28.05
2023-05-07T17:49:54.199Z,27.56
2023-05-07T17:52:20.673Z,27.81
2023-05-07T17:54:47.204Z,27.40
2023-05-07T17:57:13.535Z,27.84
2023-05-07T17:59:40.105Z,28.13
2023-05-07T18:02:06.508Z,28.03
2023-05-07T18:04:32.901Z,28.39
2023-05-07T18:06:59.190Z,28.14
2023-05-07T18:09:25.671Z,27.21
2023-05-07T18:11:51.986Z,27.06
2023-05-07T18:14:18.396Z,27.36
2023-05-07T18:16:44.774Z,27.63
2023-05-07T18:19:12.056Z,27.36
2023-05-07T18:21:38.346Z,26.87
2023-05-07T18:24:04.825Z,27.13
2023-05-07T18:26:31.169Z,27.10
2023-05-07T18:28:57.461Z,27.27
2023-05-07T18:31:23.975Z,27.26
2023-05-07T18:33:54.320Z,27.32
2023-05-07T18:36:20.656Z,26.98
2023-05-07T18:38:46.971Z,26.85
2023-05-07T18:41:13.365Z,26.89
2023-05-07T18:43:39.714Z,26.63
2023-05-07T18:46:06.395Z,26.59
2023-05-07T18:48:32.863Z,25.88
2023-05-07T18:50:59.338Z,26.33
2023-05-07T18:53:25.753Z,26.05
2023-05-07T18:55:52.204Z,25.88
2023-05-07T18:58:19.884Z,26.12
2023-05-07T19:00:49.966Z,25.87
2023-05-07T19:03:16.908Z,26.05
2023-05-07T19:05:43.710Z,25.90
2023-05-07T19:08:10.005Z,25.40
2023-05-07T19:10:36.331Z,25.28
2023-05-07T19:13:02.710Z,25.16
2023-05-07T19:15:29.013Z,25.41
2023-05-07T19:17:55.361Z,25.51
2023-05-07T19:20:21.682Z,25.00
2023-05-07T19:22:47.997Z,25.19
2023-05-07T19:25:14.520Z,24.80
2023-05-07T19:27:40.961Z,24.94
2023-05-07T19:30:08.234Z,24.47
2023-05-07T19:32:34.643Z,24.35
2023-05-07T19:35:00.930Z,24.57
2023-05-07T19:37:27.904Z,24.78
2023-05-07T19:39:54.600Z,24.57
2023-05-07T19:42:20.984Z,24.62
2023-05-07T19:44:47.264Z,24.64
2023-05-07T19:47:13.589Z,24.06
2023-05-07T19:49:39.858Z,24.39
2023-05-07T19:52:06.199Z,24.31
2023-05-07T19:54:32.510Z,24.28
2023-05-07T19:56:58.988Z,24.01
2023-05-07T19:59:25.899Z,24.50
2023-05-07T20:01:53.130Z,24.17
2023-05-07T20:04:19.548Z,24.47
2023-05-07T20:06:46.081Z,24.23
2023-05-07T20:09:13.585Z,24.40
2023-05-07T20:11:39.886Z,23.79
2023-05-07T20:14:06.229Z,24.19
2023-05-07T20:16:33.044Z,24.05
2023-05-07T20:18:59.416Z,24.15
2023-05-07T20:21:26.565Z,24.23
2023-05-07T20:23:53.164Z,23.93
2023-05-07T20:26:19.447Z,23.71
2023-05-07T20:28:45.846Z,23.45
2023-05-07T20:31:12.188Z,23.45
2023-05-07T20:33:40.785Z,23.61
2023-05-07T20:36:07.755Z,23.66
2023-05-07T20:38:34.147Z,23.19
2023-05-07T20:41:10.489Z,23.61
2023-05-07T20:43:39.885Z,23.82
2023-05-07T20:46:07.556Z,23.65
2023-05-07T20:48:34.086Z,23.37
2023-05-07T20:51:01.226Z,23.69
2023-05-07T20:53:27.867Z,23.60
2023-05-07T20:55:54.230Z,23.37
2023-05-07T20:58:20.675Z,23.00
2023-05-07T21:00:46.994Z,23.39
2023-05-07T21:03:13.571Z,23.63
2023-05-07T21:05:39.885Z,23.43
2023-05-07T21:08:06.264Z,22.89
2023-05-07T21:10:32.540Z,23.43
2023-05-07T21:12:58.859Z,22.94
2023-05-07T21:15:25.298Z,23.31
2023-05-07T21:17:51.686Z,22.82
2023-05-07T21:20:18.074Z,23.13
2023-05-07T21:22:44.361Z,23.09
2023-05-07T21:25:13.188Z,22.81
2023-05-07T21:27:39.756Z,23.08
2023-05-07T21:30:06.318Z,22.97
2023-05-07T21:32:32.671Z,22.73
2023-05-07T21:34:59.569Z,22.76
2023-05-07T21:37:25.884Z,22.92
2023-05-07T21:39:52.190Z,23.05
2023-05-07T21:42:19.530Z,22.90
2023-05-07T21:44:46.605Z,23.15
2023-05-07T21:47:12.969Z,22.90
2023-05-07T21:49:41.389Z,23.15
2023-05-07T21:52:14.440Z,23.10
2023-05-07T21:54:40.723Z,23.12
2023-05-07T21:57:07.029Z,22.98
2023-05-07T21:59:37.352Z,22.81
2023-05-07T22:02:03.937Z,22.62
2023-05-07T22:04:30.404Z,22.63
2023-05-07T22:06:56.766Z,22.79
2023-05-07T22:09:23.089Z,22.64
2023-05-07T22:11:49.404Z,22.57
2023-05-07T22:14:16.914Z,22.63
2023-05-07T22:16:44.178Z,21.38
2023-05-07T22:19:10.641Z,21.61
2023-05-07T22:21:37.012Z,22.04
2023-05-07T22:24:05.087Z,22.10
2023-05-07T22:26:31.383Z,22.01
2023-05-07T22:28:57.674Z,21.87
2023-05-07T22:31:23.982Z,21.47
2023-05-07T22:33:50.282Z,21.69
2023-05-07T22:36:16.579Z,21.92
2023-05-07T22:38:42.886Z,21.60
2023-05-07T22:41:09.169Z,21.82
2023-05-07T22:43:35.629Z,21.83
2023-05-07T22:46:02.009Z,21.75
2023-05-07T22:48:28.603Z,22.02
2023-05-07T22:50:55.036Z,22.27
2023-05-07T22:53:21.414Z,22.17
2023-05-07T22:55:47.696Z,22.05
2023-05-07T22:58:13.992Z,22.24
2023-05-07T23:00:40.303Z,22.53
2023-05-07T23:03:07.122Z,21.80
2023-05-07T23:05:33.515Z,22.36
2023-05-07T23:07:59.946Z,22.40
2023-05-07T23:10:26.246Z,22.23
2023-05-07T23:12:52.647Z,22.33
2023-05-07T23:15:19.561Z,22.04
2023-05-07T23:17:46.567Z,22.39
2023-05-07T23:20:13.273Z,21.71
2023-05-07T23:22:39.792Z,21.85
2023-05-07T23:25:08.660Z,21.79
2023-05-07T23:27:35.092Z,21.93
2023-05-07T23:30:01.435Z,21.24
2023-05-07T23:32:27.823Z,21.95
2023-05-07T23:34:55.678Z,22.21
2023-05-07T23:37:22.084Z,22.11
2023-05-07T23:39:52.831Z,22.10
2023-05-07T23:42:19.124Z,21.89
2023-05-07T23:44:45.426Z,21.86
2023-05-07T23:47:11.701Z,21.75
2023-05-07T23:49:37.994Z,21.96
2023-05-07T23:52:04.271Z,22.09
2023-05-07T23:54:30.568Z,21.81
2023-05-07T23:56:56.862Z,21.83
2023-05-07T23:59:23.157Z,21.78
